Time;durP1;ratioP1;P1;durP2;ratioP2;P2;SDS_P1;SDS_P2;PMS_P1;PMS_P2;Temp;Humidity;BMP_temperature;BMP_pressure;BME280_temperature;BME280_humidity;BME280_pressure;Samples;Min_cycle;Max_cycle;Signal;HPM_P1;HPM_P2
2021/03/02 00:02:44;;;;;;;;;44.40;36.80;;;;;8.45;46.20;100604.31;6208296;28;125865;-59
2021/03/02 00:05:47;;;;;;;;;47.00;37.00;;;;;8.51;46.30;100606.31;6205895;28;127726;-60
2021/03/02 00:08:50;;;;;;;;;48.40;37.20;;;;;8.54;46.27;100600.63;6207227;28;124998;-59
2021/03/02 00:11:52;;;;;;;;;55.40;43.00;;;;;8.52;46.33;100596.41;6206746;28;123679;-59
2021/03/02 00:14:54;;;;;;;;;52.75;39.50;;;;;8.50;46.00;100603.81;6206709;28;127681;-59
2021/03/02 00:17:58;;;;;;;;;46.60;36.00;;;;;8.44;45.76;100604.47;6204766;28;124419;-59
2021/03/02 00:21:05;;;;;;;;;46.50;37.50;;;;;8.37;45.61;100600.75;6205362;28;124965;-59
2021/03/02 00:24:10;;;;;;;;;47.40;37.00;;;;;7.53;45.92;100478.19;6188414;28;127115;-59
2021/03/02 00:27:15;;;;;;;;;50.40;39.40;;;;;8.23;45.99;100599.53;6182695;28;124794;-59
2021/03/02 00:30:18;;;;;;;;;54.67;43.00;;;;;8.27;46.91;100598.19;6182853;28;125927;-59
2021/03/02 00:33:24;;;;;;;;;52.50;42.25;;;;;8.32;47.13;100590.50;6182503;28;124829;-59
2021/03/02 00:36:26;;;;;;;;;55.80;42.00;;;;;8.40;47.13;100589.69;6183117;28;126024;-59
2021/03/02 00:39:27;;;;;;;;;51.00;40.50;;;;;7.77;46.84;100485.47;6182874;28;125457;-59
2021/03/02 00:42:29;;;;;;;;;54.50;43.50;;;;;8.43;46.78;100590.19;6187270;28;124713;-59
2021/03/02 00:45:31;;;;;;;;;53.33;44.00;;;;;8.37;46.97;100582.78;6198351;28;126738;-59
2021/03/02 00:48:32;;;;;;;;;56.60;44.00;;;;;8.32;47.48;100574.38;6182334;28;127323;-59
2021/03/02 00:51:34;;;;;;;;;56.25;45.25;;;;;8.30;47.88;100579.09;6183530;28;127158;-59
2021/03/02 00:54:36;;;;;;;;;59.00;44.40;;;;;8.27;47.85;100576.69;6181182;28;125314;-59
2021/03/02 00:57:38;;;;;;;;;55.40;43.00;;;;;8.32;47.99;100581.59;6186356;28;123822;-59
2021/03/02 01:00:41;;;;;;;;;51.60;43.00;;;;;8.33;47.91;100575.22;6186503;28;126353;-59
2021/03/02 01:03:45;;;;;;;;;53.60;43.00;;;;;8.32;48.05;100578.91;6186934;28;124489;-59
2021/03/02 01:06:49;;;;;;;;;56.20;43.00;;;;;8.34;48.05;100576.91;6209992;28;124851;-59
2021/03/02 01:09:51;;;;;;;;;57.00;44.00;;;;;8.37;47.85;100577.41;6202462;28;125446;-59
2021/03/02 01:12:52;;;;;;;;;53.40;41.40;;;;;8.39;47.99;100561.13;6186427;28;126804;-59
2021/03/02 01:15:55;;;;;;;;;51.40;40.00;;;;;8.37;47.99;100566.66;6185882;28;126060;-59
2021/03/02 01:18:57;;;;;;;;;52.20;42.00;;;;;7.63;47.96;100441.31;6187224;28;127227;-59
2021/03/02 01:21:58;;;;;;;;;50.00;40.00;;;;;8.19;48.14;100541.78;6186410;28;125648;-59
2021/03/02 01:25:00;;;;;;;;;52.00;41.00;;;;;8.39;47.76;100555.75;6185999;28;125321;-59
2021/03/02 01:28:03;;;;;;;;;50.60;40.40;;;;;8.38;47.94;100546.84;6189441;28;126141;-59
2021/03/02 01:31:05;;;;;;;;;49.20;39.80;;;;;8.16;47.88;100523.31;6225600;28;126838;-59
2021/03/02 01:34:06;;;;;;;;;49.25;39.75;;;;;8.34;47.76;100539.28;6210597;28;126486;-59
2021/03/02 01:37:08;;;;;;;;;53.20;41.80;;;;;8.30;48.10;100546.88;6211096;28;126664;-59
2021/03/02 01:40:13;;;;;;;;;51.80;40.00;;;;;8.28;48.20;100540.75;6211262;28;124079;-59
2021/03/02 01:43:15;;;;;;;;;52.60;41.60;;;;;8.17;48.57;100539.25;6226506;28;126057;-60
2021/03/02 01:46:17;;;;;;;;;50.00;40.00;;;;;8.16;48.62;100534.06;6226853;28;125040;-60
2021/03/02 01:49:19;;;;;;;;;52.00;40.60;;;;;8.13;48.71;100531.69;6226688;28;126506;-60
2021/03/02 01:52:20;;;;;;;;;50.80;40.80;;;;;8.08;48.79;100528.66;6209794;28;126422;-60
2021/03/02 01:55:22;;;;;;;;;52.60;43.00;;;;;8.15;48.59;100529.69;6196762;28;125266;-60
2021/03/02 01:58:27;;;;;;;;;51.20;39.00;;;;;8.15;48.53;100532.38;6186395;28;126177;-60
2021/03/02 02:01:28;;;;;;;;;52.60;40.80;;;;;8.12;48.49;100511.19;6185898;28;126312;-60
2021/03/02 02:04:41;;;;;;;;;52.00;40.80;;;;;8.11;48.82;100514.91;6205588;28;125810;-60
2021/03/02 02:07:49;;;;;;;;;53.00;41.60;;;;;7.91;48.97;100502.78;6210246;28;124853;-60
2021/03/02 02:11:55;;;;;;;;;52.00;42.00;;;;;7.95;48.79;100510.34;6210548;28;126621;-60
2021/03/02 02:15:17;;;;;;;;;53.00;42.00;;;;;7.92;49.07;100499.06;6224016;28;126729;-60
2021/03/02 02:18:27;;;;;;;;;52.00;40.00;;;;;7.43;49.08;100423.00;6210939;28;127684;-60
2021/03/02 02:21:47;;;;;;;;;52.75;42.00;;;;;7.84;49.05;100492.69;6207570;28;126414;-60
2021/03/02 02:25:28;;;;;;;;;54.40;43.00;;;;;7.91;49.20;100502.78;6185772;28;126507;-60
2021/03/02 02:28:33;;;;;;;;;51.50;41.25;;;;;7.89;49.21;100496.72;6185725;28;125731;-60
2021/03/02 02:31:38;;;;;;;;;57.00;44.00;;;;;7.87;49.10;100494.19;6190914;28;127015;-60
2021/03/02 02:34:41;;;;;;;;;53.00;42.60;;;;;7.88;49.23;100495.88;6210011;28;126089;-60
2021/03/02 02:37:43;;;;;;;;;58.60;45.00;;;;;7.84;49.46;100500.75;6209337;28;124856;-60
2021/03/02 02:40:46;;;;;;;;;55.20;44.00;;;;;7.86;49.61;100495.22;6210438;28;126234;-60
2021/03/02 02:43:50;;;;;;;;;57.60;45.60;;;;;7.83;49.68;100487.47;6210392;28;126410;-60
2021/03/02 02:46:54;;;;;;;;;57.50;44.25;;;;;7.81;49.77;100490.34;6223722;28;126139;-59
2021/03/02 02:49:56;;;;;;;;;56.40;43.00;;;;;7.86;49.73;100489.00;6209655;28;127036;-60
2021/03/02 02:52:59;;;;;;;;;54.40;43.00;;;;;7.83;49.57;100491.00;6207261;28;127613;-59
2021/03/02 02:56:02;;;;;;;;;56.80;44.00;;;;;7.68;49.53;100462.28;6207562;28;124625;-59
2021/03/02 02:59:18;;;;;;;;;55.25;44.00;;;;;7.67;49.54;100479.41;6208623;28;126577;-59
2021/03/02 03:02:22;;;;;;;;;54.25;43.00;;;;;7.68;49.45;100481.06;6208618;28;128135;-59
2021/03/02 03:05:26;;;;;;;;;51.80;42.40;;;;;7.38;49.43;100426.97;6208198;28;124473;-59
2021/03/02 03:08:31;;;;;;;;;56.80;44.20;;;;;7.68;49.39;100478.38;6208437;28;126081;-59
2021/03/02 03:11:45;;;;;;;;;56.00;44.00;;;;;7.56;49.33;100455.56;6208253;28;125862;-59
2021/03/02 03:14:57;;;;;;;;;57.80;45.20;;;;;7.69;49.28;100475.53;6200520;28;127051;-59
2021/03/02 03:18:15;;;;;;;;;60.60;46.00;;;;;7.58;48.98;100459.75;6182669;28;124866;-59
2021/03/02 03:21:17;;;;;;;;;59.00;47.00;;;;;7.67;48.79;100485.59;6183503;28;126202;-59
2021/03/02 03:24:22;;;;;;;;;59.25;46.50;;;;;7.72;48.63;100495.88;6183764;28;128319;-59
2021/03/02 03:27:26;;;;;;;;;58.00;46.00;;;;;7.71;48.80;100497.72;6183482;28;127818;-59
2021/03/02 03:30:30;;;;;;;;;61.00;45.40;;;;;7.55;48.68;100480.72;6183388;28;125891;-59
2021/03/02 03:33:33;;;;;;;;;61.80;48.40;;;;;7.68;48.69;100498.03;6183048;28;127102;-59
2021/03/02 03:36:36;;;;;;;;;59.25;47.00;;;;;7.68;48.74;100502.53;6183091;28;125617;-59
2021/03/02 03:39:37;;;;;;;;;58.50;46.00;;;;;6.95;48.40;100379.75;6183140;28;127815;-59
2021/03/02 03:42:39;;;;;;;;;62.00;47.00;;;;;7.73;48.37;100493.00;6189508;28;127679;-59
2021/03/02 03:45:40;;;;;;;;;63.00;48.00;;;;;7.75;48.30;100490.16;6207629;28;126279;-59
2021/03/02 03:48:42;;;;;;;;;61.20;46.20;;;;;7.73;48.44;100503.75;6207739;28;127644;-59
2021/03/02 03:51:45;;;;;;;;;61.20;46.80;;;;;7.67;48.32;100492.84;6207519;28;126626;-59
2021/03/02 03:54:49;;;;;;;;;62.60;48.00;;;;;7.64;48.03;100502.03;6207565;28;127044;-59
2021/03/02 03:57:51;;;;;;;;;61.60;46.40;;;;;7.62;48.28;100498.69;6206817;28;126448;-59
2021/03/02 04:00:54;;;;;;;;;62.60;48.60;;;;;7.55;48.39;100500.34;6206238;28;125935;-59
2021/03/02 04:03:57;;;;;;;;;67.00;50.80;;;;;7.55;48.57;100489.59;6207593;28;126354;-59
2021/03/02 04:06:59;;;;;;;;;67.40;51.80;;;;;7.53;48.74;100496.13;6207236;28;126560;-59
2021/03/02 04:10:03;;;;;;;;;66.80;50.80;;;;;7.50;48.81;100489.25;6205665;28;126323;-59
2021/03/02 04:13:15;;;;;;;;;69.50;53.00;;;;;7.40;49.17;100491.22;6194858;28;126072;-59
2021/03/02 04:16:16;;;;;;;;;65.60;50.00;;;;;7.31;49.76;100490.38;6180722;28;126067;-59
2021/03/02 04:19:18;;;;;;;;;69.75;51.00;;;;;7.33;50.17;100490.22;6182778;28;126045;-59
2021/03/02 04:22:19;;;;;;;;;70.00;52.20;;;;;7.38;50.39;100503.94;6182280;28;124798;-59
2021/03/02 04:25:20;;;;;;;;;66.20;50.60;;;;;7.29;50.84;100488.84;6180988;28;126693;-59
2021/03/02 04:28:22;;;;;;;;;69.00;53.00;;;;;6.86;50.91;100444.22;6182166;28;127736;-59
2021/03/02 04:31:23;;;;;;;;;70.00;55.00;;;;;7.22;51.07;100479.75;6180816;28;126416;-59
2021/03/02 04:34:24;;;;;;;;;71.67;52.67;;;;;7.03;51.41;100459.41;6198006;28;127288;-59
2021/03/02 04:37:26;;;;;;;;;66.80;51.00;;;;;7.06;51.47;100477.00;6206975;28;126552;-59
2021/03/02 04:40:27;;;;;;;;;67.60;51.20;;;;;7.04;51.38;100481.69;6206534;28;126491;-59
2021/03/02 04:43:29;;;;;;;;;70.00;52.00;;;;;7.01;51.74;100479.31;6190794;28;125912;-59
2021/03/02 04:46:30;;;;;;;;;73.00;53.40;;;;;6.93;51.83;100489.03;6181931;28;127991;-59
2021/03/02 04:49:32;;;;;;;;;72.20;52.00;;;;;6.95;52.04;100484.31;6181868;28;126625;-59
2021/03/02 04:52:33;;;;;;;;;66.00;50.60;;;;;6.95;52.07;100480.78;6181628;28;127440;-59
2021/03/02 04:55:35;;;;;;;;;67.00;52.00;;;;;6.96;52.38;100479.81;6182715;28;124797;-59
2021/03/02 04:58:36;;;;;;;;;70.20;54.40;;;;;7.05;52.12;100478.00;6183788;28;127390;-59
2021/03/02 05:01:38;;;;;;;;;72.20;56.00;;;;;7.05;51.86;100484.19;6203965;28;127031;-59
2021/03/02 05:04:39;;;;;;;;;70.20;53.00;;;;;6.88;51.99;100467.22;6194295;28;125061;-59
2021/03/02 05:07:41;;;;;;;;;73.00;53.40;;;;;6.72;52.00;100418.84;6181452;28;127726;-59
2021/03/02 05:10:42;;;;;;;;;75.00;59.00;;;;;7.14;51.88;100491.28;6191745;28;126734;-59
2021/03/02 05:13:45;;;;;;;;;69.33;52.00;;;;;7.16;52.05;100491.13;6201725;28;125899;-59
2021/03/02 05:16:48;;;;;;;;;72.00;53.50;;;;;7.19;51.93;100506.88;6205916;28;124952;-59
2021/03/02 05:19:49;;;;;;;;;71.20;53.00;;;;;7.20;52.04;100485.28;6194038;28;125098;-60
2021/03/02 05:22:51;;;;;;;;;72.80;53.40;;;;;7.21;51.85;100488.81;6203357;28;127591;-60
2021/03/02 05:25:52;;;;;;;;;69.80;52.20;;;;;7.04;51.76;100468.28;6205565;28;124997;-59
2021/03/02 05:28:53;;;;;;;;;67.50;52.00;;;;;6.83;52.18;100442.72;6212734;28;128492;-59
2021/03/02 05:31:55;;;;;;;;;70.00;52.00;;;;;7.10;52.13;100478.34;6202309;28;126558;-59
2021/03/02 05:34:56;;;;;;;;;67.60;52.00;;;;;6.96;51.98;100464.56;6205717;28;126305;-59
2021/03/02 05:37:58;;;;;;;;;72.40;53.20;;;;;7.11;51.90;100480.88;6199970;28;126488;-59
2021/03/02 05:40:59;;;;;;;;;71.00;52.25;;;;;7.08;52.05;100489.25;6180631;28;125740;-59
2021/03/02 05:44:01;;;;;;;;;69.40;52.60;;;;;6.99;51.94;100494.75;6196320;28;127757;-59
2021/03/02 05:47:09;;;;;;;;;71.80;54.40;;;;;7.06;51.95;100485.03;6196158;28;125183;-59
2021/03/02 05:50:12;;;;;;;;;68.20;52.00;;;;;6.97;51.67;100460.03;6199762;28;125197;-59
2021/03/02 05:53:13;;;;;;;;;67.00;51.00;;;;;6.86;51.69;100439.69;6194127;28;125915;-59
2021/03/02 05:56:15;;;;;;;;;66.60;50.60;;;;;7.20;51.38;100489.81;6191982;28;127303;-59
2021/03/02 05:59:17;;;;;;;;;64.60;48.40;;;;;7.01;51.39;100453.34;6191568;28;126266;-59
2021/03/02 06:02:21;;;;;;;;;68.00;51.00;;;;;7.16;51.39;100480.41;6187773;28;127274;-59
2021/03/02 06:05:22;;;;;;;;;69.40;52.60;;;;;7.17;51.83;100484.78;6201200;28;126019;-59
2021/03/02 06:08:23;;;;;;;;;67.50;51.75;;;;;6.87;51.28;100425.31;6197452;28;125717;-59
2021/03/02 06:11:35;;;;;;;;;65.50;50.50;;;;;7.28;51.21;100492.53;6195017;28;125143;-59
2021/03/02 06:14:37;;;;;;;;;68.00;52.00;;;;;7.33;51.25;100484.84;6209614;28;125911;-59
2021/03/02 06:17:38;;;;;;;;;66.00;51.00;;;;;7.28;51.06;100479.94;6207623;27;126478;-59
2021/03/02 06:20:43;;;;;;;;;67.00;51.00;;;;;6.95;51.20;100453.97;6208006;28;125124;-59
2021/03/02 06:23:47;;;;;;;;;67.40;51.40;;;;;7.03;51.29;100472.81;6209614;28;128105;-59
2021/03/02 06:27:05;;;;;;;;;67.60;51.60;;;;;7.12;51.63;100500.50;6196386;28;124887;-59
2021/03/02 06:30:12;;;;;;;;;68.60;52.00;;;;;6.89;51.66;100468.88;6199993;28;127079;-59
2021/03/02 06:33:17;;;;;;;;;67.25;52.00;;;;;7.23;51.64;100495.69;6188479;28;125860;-59
2021/03/02 06:36:19;;;;;;;;;65.50;51.00;;;;;7.31;51.30;100492.19;6204151;28;125967;-59
2021/03/02 06:39:35;;;;;;;;;67.80;51.80;;;;;7.42;51.34;100494.59;6206882;28;126651;-59
2021/03/02 06:42:38;;;;;;;;;64.67;50.00;;;;;7.44;51.04;100500.63;6201984;28;125705;-59
2021/03/02 06:45:49;;;;;;;;;62.33;48.00;;;;;7.47;50.96;100496.78;6209334;28;126078;-59
2021/03/02 06:48:56;;;;;;;;;64.80;49.80;;;;;7.59;50.90;100492.78;6189452;28;126030;-59
2021/03/02 06:52:14;;;;;;;;;64.00;50.00;;;;;7.67;50.80;100492.84;6222030;28;124854;-59
2021/03/02 06:55:15;;;;;;;;;64.00;51.00;;;;;7.66;50.66;100489.31;6215909;27;127703;-60
2021/03/02 06:58:17;;;;;;;;;68.00;51.00;;;;;7.68;50.33;100475.69;6183421;28;126645;-59
2021/03/02 07:01:34;;;;;;;;;65.00;51.00;;;;;7.63;50.02;100464.63;6193994;28;124860;-59
2021/03/02 07:04:36;;;;;;;;;67.60;51.00;;;;;7.42;50.11;100466.94;6193788;28;127107;-59
2021/03/02 07:07:43;;;;;;;;;66.00;50.20;;;;;7.51;50.34;100477.53;6182499;28;126925;-59
2021/03/02 07:10:50;;;;;;;;;63.20;48.40;;;;;7.50;50.64;100486.56;6182670;28;126034;-59
2021/03/02 07:13:51;;;;;;;;;68.20;51.40;;;;;7.61;50.55;100488.13;6182563;28;124065;-59
2021/03/02 07:16:53;;;;;;;;;68.50;52.00;;;;;7.67;50.28;100477.53;6206155;28;128111;-59
2021/03/02 07:19:57;;;;;;;;;70.00;53.00;;;;;7.59;50.06;100472.16;6192884;28;125965;-59
2021/03/02 07:23:02;;;;;;;;;69.25;53.00;;;;;7.66;49.94;100478.56;6182043;28;126016;-59
2021/03/02 07:26:12;;;;;;;;;67.00;51.80;;;;;7.75;49.52;100482.94;6194641;28;126036;-59
2021/03/02 07:29:14;;;;;;;;;68.00;52.00;;;;;7.50;49.53;100469.63;6181968;28;127882;-59
2021/03/02 07:32:17;;;;;;;;;70.00;52.80;;;;;7.59;49.68;100463.28;6187642;28;124323;-60
2021/03/02 07:35:23;;;;;;;;;71.40;53.00;;;;;7.84;49.48;100483.81;6196909;28;127546;-60
2021/03/02 07:38:25;;;;;;;;;69.00;52.80;;;;;7.90;49.57;100493.03;6207054;28;126115;-60
2021/03/02 07:41:34;;;;;;;;;70.50;52.00;;;;;7.93;49.41;100490.00;6187754;28;125380;-60
2021/03/02 07:45:01;;;;;;;;;73.60;56.20;;;;;8.08;49.30;100499.09;6206538;28;124775;-60
2021/03/02 07:48:03;;;;;;;;;69.80;52.00;;;;;8.25;48.70;100487.38;6196635;28;126402;-59
2021/03/02 07:51:12;;;;;;;;;69.00;52.25;;;;;8.26;48.61;100495.25;6206762;28;123934;-60
2021/03/02 07:54:19;;;;;;;;;69.00;52.00;;;;;8.29;48.50;100477.97;6182060;28;124804;-60
2021/03/02 07:57:21;;;;;;;;;70.00;53.00;;;;;8.45;47.86;100496.81;6192158;28;124670;-60
2021/03/02 08:00:23;;;;;;;;;67.80;53.00;;;;;8.48;47.98;100492.94;6199360;28;126410;-59
2021/03/02 08:03:30;;;;;;;;;71.00;54.00;;;;;8.39;47.78;100454.47;6164690;28;125545;-60
2021/03/02 08:06:33;;;;;;;;;73.60;55.00;;;;;8.78;47.44;100488.69;6181823;28;124799;-60
2021/03/02 08:09:34;;;;;;;;;72.40;58.00;;;;;8.79;47.58;100490.38;6183456;28;126516;-60
2021/03/02 08:12:36;;;;;;;;;71.25;55.50;;;;;8.96;47.41;100495.53;6182610;28;127235;-60
2021/03/02 08:15:39;;;;;;;;;70.25;53.25;;;;;9.65;46.00;100493.06;6183029;28;126185;-60
2021/03/02 08:18:53;;;;;;;;;71.75;53.00;;;;;9.18;44.52;100354.03;6187239;28;126708;-60
2021/03/02 08:22:18;;;;;;;;;70.00;52.20;;;;;10.40;43.80;100491.41;6206315;28;125799;-60
2021/03/02 08:25:27;;;;;;;;;68.00;53.00;;;;;10.64;43.53;100488.50;6185842;28;126807;-60
2021/03/02 08:28:28;;;;;;;;;68.00;53.00;;;;;11.32;42.06;100490.13;6206774;28;124829;-60
2021/03/02 08:31:30;;;;;;;;;69.00;51.75;;;;;12.19;40.89;100493.63;6196834;28;126942;-60
2021/03/02 08:34:31;;;;;;;;;68.00;52.50;;;;;12.37;39.51;100450.75;6202237;28;126800;-60
2021/03/02 08:37:44;;;;;;;;;64.20;50.20;;;;;13.37;38.22;100491.84;6202499;28;127331;-60
2021/03/02 08:40:48;;;;;;;;;64.75;50.00;;;;;13.68;36.94;100487.81;6205783;28;126047;-60
2021/03/02 08:43:51;;;;;;;;;69.00;52.00;;;;;14.53;35.81;100498.03;6192758;28;126719;-60
2021/03/02 08:46:55;;;;;;;;;66.00;51.00;;;;;15.66;34.04;100492.22;6182622;28;126594;-60
2021/03/02 08:49:56;;;;;;;;;68.60;51.00;;;;;16.56;32.63;100503.81;6201975;28;125413;-60
2021/03/02 08:52:58;;;;;;;;;65.50;49.00;;;;;17.80;30.65;100507.19;6201401;28;126763;-61
2021/03/02 08:56:01;;;;;;;;;66.40;51.00;;;;;18.55;29.33;100524.00;6181990;28;126535;-61
2021/03/02 08:59:16;;;;;;;;;67.00;52.00;;;;;19.55;28.26;100510.28;6181452;28;124991;-60
2021/03/02 09:02:17;;;;;;;;;69.50;54.00;;;;;20.93;26.15;100510.69;6196146;28;126114;-60
2021/03/02 09:05:32;;;;;;;;;70.60;55.00;;;;;22.22;25.16;100510.28;6202681;28;126054;-60
2021/03/02 09:08:53;;;;;;;;;68.75;52.75;;;;;23.05;24.26;100515.19;6195960;28;126877;-60
2021/03/02 09:11:57;;;;;;;;;69.00;53.00;;;;;23.69;23.12;100513.09;6180398;28;127836;-60
2021/03/02 09:14:58;;;;;;;;;70.25;53.75;;;;;24.27;22.65;100504.78;6180974;28;127660;-60
2021/03/02 09:18:16;;;;;;;;;70.00;53.00;;;;;24.79;21.82;100471.44;6195802;28;127193;-60
2021/03/02 09:21:20;;;;;;;;;67.40;52.00;;;;;25.66;20.93;100503.31;6201030;28;126050;-60
2021/03/02 09:24:24;;;;;;;;;66.20;51.80;;;;;25.88;20.34;100499.09;6201286;28;125458;-60
2021/03/02 09:27:34;;;;;;;;;66.00;50.50;;;;;26.03;20.46;100498.19;6194751;28;123870;-60
2021/03/02 09:30:39;;;;;;;;;67.20;50.20;;;;;26.20;19.85;100495.03;6200167;28;126995;-60
2021/03/02 09:33:40;;;;;;;;;65.20;50.00;;;;;26.24;19.63;100501.72;6200050;28;126668;-61
2021/03/02 09:36:42;;;;;;;;;67.00;50.00;;;;;26.31;19.65;100466.25;6199312;28;127638;-61
2021/03/02 09:40:12;;;;;;;;;64.00;49.00;;;;;26.63;19.51;100501.72;6209042;28;127518;-61
2021/03/02 09:43:14;;;;;;;;;66.00;50.40;;;;;26.93;19.40;100508.94;6204937;28;125867;-61
2021/03/02 09:46:15;;;;;;;;;65.60;50.00;;;;;26.98;18.90;100495.88;6184725;28;126147;-61
2021/03/02 09:49:36;;;;;;;;;65.00;49.80;;;;;27.50;18.54;100521.97;6184471;28;127607;-61
2021/03/02 09:52:42;;;;;;;;;65.40;49.00;;;;;28.01;18.42;100522.16;6202644;28;127254;-60
2021/03/02 09:55:48;;;;;;;;;66.80;51.40;;;;;28.13;17.99;100511.50;6203278;28;126076;-60
2021/03/02 09:58:49;;;;;;;;;62.00;48.00;;;;;28.75;17.96;100528.91;6188455;28;124763;-60
2021/03/02 10:01:52;;;;;;;;;62.00;48.00;;;;;29.00;17.58;100522.09;6195912;28;124706;-60
2021/03/02 10:05:06;;;;;;;;;58.00;46.00;;;;;29.30;17.55;100529.88;6183261;28;125067;-60
2021/03/02 10:08:17;;;;;;;;;59.20;46.00;;;;;29.58;17.16;100522.44;6183786;28;126319;-60
2021/03/02 10:11:21;;;;;;;;;61.40;46.00;;;;;29.89;17.17;100514.31;6183700;28;126995;-60
2021/03/02 10:14:35;;;;;;;;;55.80;44.00;;;;;29.91;17.01;100506.50;6200816;28;125728;-61
2021/03/02 10:17:37;;;;;;;;;55.00;43.00;;;;;29.75;16.78;100505.13;6206246;28;124509;-60
2021/03/02 10:21:07;;;;;;;;;57.60;45.00;;;;;29.58;17.15;100502.97;6183729;28;126486;-61
2021/03/02 10:24:09;;;;;;;;;53.25;43.00;;;;;29.64;17.23;100454.47;6206782;28;127962;-61
2021/03/02 10:27:11;;;;;;;;;59.40;43.40;;;;;30.06;17.05;100495.84;6209794;28;127574;-61
2021/03/02 10:30:12;;;;;;;;;59.00;44.20;;;;;30.03;16.92;100492.88;6182717;28;127117;-61
2021/03/02 10:33:14;;;;;;;;;57.67;44.00;;;;;29.93;17.14;100487.53;6204188;28;126431;-61
2021/03/02 10:36:21;;;;;;;;;54.75;41.75;;;;;29.91;17.46;100479.50;6207445;28;126101;-61
2021/03/02 10:39:23;;;;;;;;;50.40;39.00;;;;;30.04;17.33;100478.66;6208340;28;125387;-61
2021/03/02 10:42:24;;;;;;;;;47.20;38.00;;;;;29.89;16.72;100469.81;6207799;28;128218;-61
2021/03/02 10:45:26;;;;;;;;;52.00;41.00;;;;;29.80;17.33;100477.22;6208305;28;126607;-61
2021/03/02 10:48:28;;;;;;;;;47.20;39.00;;;;;29.46;17.04;100459.03;6207036;28;126286;-61
2021/03/02 10:51:30;;;;;;;;;47.00;38.00;;;;;29.46;17.38;100466.53;6190702;28;127748;-61
2021/03/02 10:54:32;;;;;;;;;50.00;39.00;;;;;29.44;17.65;100457.69;6206596;28;125671;-61
2021/03/02 10:57:34;;;;;;;;;47.50;38.00;;;;;29.29;17.34;100462.38;6188757;28;127813;-61
2021/03/02 11:00:35;;;;;;;;;47.00;39.00;;;;;29.37;17.73;100452.53;6184620;28;127782;-61
2021/03/02 11:03:39;;;;;;;;;53.00;41.00;;;;;29.60;17.37;100447.91;6193562;28;126659;-61
2021/03/02 11:06:40;;;;;;;;;47.20;38.20;;;;;29.44;17.84;100452.13;6206275;28;125041;-62
2021/03/02 11:09:41;;;;;;;;;47.80;38.80;;;;;29.71;17.73;100461.25;6206268;28;127741;-62
2021/03/02 11:12:43;;;;;;;;;46.00;38.00;;;;;29.79;17.38;100456.13;6203878;28;127656;-61
2021/03/02 11:15:45;;;;;;;;;45.80;37.20;;;;;30.11;17.42;100459.56;6206351;28;124481;-61
2021/03/02 11:18:46;;;;;;;;;44.50;35.50;;;;;30.21;17.21;100455.72;6194800;28;127653;-60
2021/03/02 11:21:48;;;;;;;;;45.60;36.00;;;;;30.57;16.87;100444.59;6183857;28;125597;-60
2021/03/02 11:24:50;;;;;;;;;45.33;36.00;;;;;30.90;16.99;100451.50;6203433;28;126814;-61
2021/03/02 11:27:52;;;;;;;;;43.20;35.00;;;;;31.21;16.28;100445.16;6181266;28;127624;-61
2021/03/02 11:30:53;;;;;;;;;36.50;32.00;;;;;31.16;15.84;100414.63;6182796;28;126265;-61
2021/03/02 11:33:55;;;;;;;;;37.00;32.00;;;;;31.42;15.77;100434.25;6184383;28;126595;-61
2021/03/02 11:36:56;;;;;;;;;41.50;33.00;;;;;31.55;15.79;100433.28;6183810;28;126513;-62
2021/03/02 11:39:58;;;;;;;;;40.60;35.00;;;;;30.92;16.49;100387.97;6183339;28;125570;-62
2021/03/02 11:42:59;;;;;;;;;44.40;36.00;;;;;30.67;16.44;100416.50;6182010;28;128492;-62
2021/03/02 11:46:02;;;;;;;;;41.20;33.20;;;;;30.57;16.43;100421.50;6198553;28;128000;-62
2021/03/02 11:49:04;;;;;;;;;42.80;36.00;;;;;30.26;16.89;100393.56;6205582;28;124889;-61
2021/03/02 11:52:06;;;;;;;;;44.20;35.40;;;;;29.86;17.03;100368.34;6208018;28;127452;-61
2021/03/02 11:55:09;;;;;;;;;40.80;35.00;;;;;30.17;16.57;100409.38;6207669;28;125188;-61
2021/03/02 11:58:11;;;;;;;;;45.00;35.50;;;;;30.01;17.08;100389.44;6187483;28;123751;-61
2021/03/02 12:01:12;;;;;;;;;45.60;36.00;;;;;29.88;17.33;100410.56;6182807;28;128217;-61
2021/03/02 12:04:14;;;;;;;;;45.00;36.80;;;;;29.84;17.51;100417.06;6191355;28;128058;-61
2021/03/02 12:07:15;;;;;;;;;43.00;34.75;;;;;29.83;17.21;100399.56;6184760;28;125375;-61
2021/03/02 12:10:18;;;;;;;;;46.00;37.00;;;;;29.93;17.65;100398.53;6183502;28;126439;-61
2021/03/02 12:13:21;;;;;;;;;45.00;36.00;;;;;29.82;17.65;100363.72;6189880;28;127010;-61
2021/03/02 12:16:23;;;;;;;;;43.80;34.80;;;;;30.15;17.05;100404.16;6207948;28;126269;-61
2021/03/02 12:19:25;;;;;;;;;47.00;38.00;;;;;30.19;17.31;100394.03;6202948;28;125391;-61
2021/03/02 12:22:27;;;;;;;;;46.00;39.00;;;;;30.35;17.44;100400.84;6206347;28;127168;-61
2021/03/02 12:25:28;;;;;;;;;44.40;36.00;;;;;30.44;17.27;100392.56;6205788;28;127709;-61
2021/03/02 12:28:29;;;;;;;;;45.40;35.00;;;;;30.63;16.93;100393.22;6200018;28;127239;-61
2021/03/02 12:31:31;;;;;;;;;32.20;29.20;;;;;30.34;16.15;100370.56;6203128;28;127110;-61
2021/03/02 12:34:32;;;;;;;;;31.75;28.50;;;;;30.38;15.88;100393.84;6199176;28;125236;-61
2021/03/02 12:37:35;;;;;;;;;33.40;30.00;;;;;30.08;16.31;100360.06;6204079;28;125635;-62
2021/03/02 12:40:36;;;;;;;;;33.40;29.20;;;;;30.03;16.17;100374.09;6188249;28;125569;-61
2021/03/02 12:43:38;;;;;;;;;36.40;30.40;;;;;29.56;16.73;100369.88;6206307;28;128362;-61
2021/03/02 12:46:39;;;;;;;;;32.00;28.00;;;;;29.09;16.92;100332.22;6222601;28;126119;-61
2021/03/02 12:49:41;;;;;;;;;31.00;28.50;;;;;28.78;17.01;100370.09;6206408;28;125265;-61
2021/03/02 12:52:43;;;;;;;;;31.50;27.00;;;;;28.54;17.88;100372.97;6205616;28;126278;-61
2021/03/02 12:55:45;;;;;;;;;30.40;29.00;;;;;28.29;17.85;100367.88;6191324;28;126249;-61
2021/03/02 12:58:46;;;;;;;;;32.80;28.80;;;;;27.80;18.36;100321.22;6205834;28;126661;-61
2021/03/02 13:01:49;;;;;;;;;33.00;29.00;;;;;27.80;18.13;100348.94;6205866;28;126494;-62
2021/03/02 13:04:54;;;;;;;;;32.60;30.00;;;;;27.55;18.38;100339.88;6206487;28;124486;-62
2021/03/02 13:07:56;;;;;;;;;31.75;26.75;;;;;27.32;18.48;100337.13;6209047;28;125826;-61
2021/03/02 13:10:58;;;;;;;;;33.00;29.00;;;;;27.30;18.88;100362.34;6209616;28;125763;-60
2021/03/02 13:14:02;;;;;;;;;32.00;29.00;;;;;27.06;19.00;100370.69;6208432;27;126677;-60
2021/03/02 13:17:05;;;;;;;;;32.00;27.60;;;;;26.68;19.60;100360.56;6205375;28;125061;-61
2021/03/02 13:20:07;;;;;;;;;38.00;30.60;;;;;26.45;20.09;100344.72;6207514;28;125302;-61
2021/03/02 13:23:09;;;;;;;;;37.00;32.00;;;;;26.26;20.66;100345.44;6208362;28;127117;-61
2021/03/02 13:26:15;;;;;;;;;29.75;27.25;;;;;26.12;20.21;100361.03;6204944;28;125273;-62
2021/03/02 13:29:23;;;;;;;;;29.50;28.50;;;;;25.93;20.45;100353.72;6203092;28;126065;-61
2021/03/02 13:32:42;;;;;;;;;35.80;29.80;;;;;25.63;20.50;100303.09;6188925;28;125724;-61
2021/03/02 13:35:47;;;;;;;;;36.00;31.00;;;;;25.42;20.60;100335.47;6187085;28;125675;-61
2021/03/02 13:38:52;;;;;;;;;30.00;27.00;;;;;25.43;20.78;100333.56;6209669;28;126054;-61
2021/03/02 13:41:57;;;;;;;;;34.00;29.00;;;;;25.34;20.83;100325.03;6185669;28;127018;-61
2021/03/02 13:44:59;;;;;;;;;31.00;28.00;;;;;25.13;21.57;100306.91;6206787;28;127369;-61
2021/03/02 13:48:00;;;;;;;;;32.00;28.00;;;;;24.70;21.46;100299.34;6210409;28;125145;-61
2021/03/02 13:51:02;;;;;;;;;31.00;28.40;;;;;24.72;21.58;100320.03;6210477;28;125842;-61
2021/03/02 13:54:03;;;;;;;;;33.00;27.00;;;;;24.49;21.72;100326.97;6209471;28;125245;-61
2021/03/02 13:57:05;;;;;;;;;33.00;30.00;;;;;24.24;22.06;100293.91;6207302;28;126494;-61